Time;durP1;ratioP1;P1;durP2;ratioP2;P2;SDS_P1;SDS_P2;PMS_P1;PMS_P2;Temp;Humidity;BMP_temperature;BMP_pressure;BME280_temperature;BME280_humidity;BME280_pressure;Samples;Min_cycle;Max_cycle;Signal;HPM_P1;HPM_P2
2020/12/14 00:01:54;;;;;;;9.43;5.07;;;8.00;99.90;;;;;;5030632;28;20048;-37
2020/12/14 00:04:20;;;;;;;12.10;5.53;;;8.00;99.90;;;;;;5029372;28;20528;-37
2020/12/14 00:06:52;;;;;;;11.27;4.40;;;7.90;99.90;;;;;;5034879;28;20498;-37
2020/12/14 00:09:18;;;;;;;12.18;4.88;;;8.00;99.90;;;;;;5032083;28;20560;-37
2020/12/14 00:11:43;;;;;;;8.15;3.95;;;7.90;99.90;;;;;;5034417;28;20113;-37
2020/12/14 00:14:09;;;;;;;15.32;5.97;;;7.90;99.90;;;;;;5026553;28;20029;-36
2020/12/14 00:16:34;;;;;;;8.35;4.80;;;7.90;99.90;;;;;;5020543;28;20026;-36
2020/12/14 00:19:00;;;;;;;16.58;4.22;;;7.90;99.90;;;;;;5022458;28;20037;-37
2020/12/14 00:21:26;;;;;;;13.15;5.85;;;7.90;99.90;;;;;;5030272;28;20025;-36
2020/12/14 00:23:51;;;;;;;10.65;3.90;;;7.90;99.90;;;;;;5021525;28;20029;-36
2020/12/14 00:26:18;;;;;;;8.88;4.15;;;7.90;99.90;;;;;;5031232;28;20041;-37
2020/12/14 00:28:47;;;;;;;13.50;4.60;;;7.90;99.90;;;;;;5024123;28;20025;-36
2020/12/14 00:31:14;;;;;;;13.25;4.82;;;7.90;99.90;;;;;;5029994;28;20085;-37
2020/12/14 00:33:40;;;;;;;12.23;4.15;;;7.90;99.90;;;;;;5028735;28;20029;-37
2020/12/14 00:36:08;;;;;;;6.53;2.45;;;7.90;99.90;;;;;;5030689;28;20033;-36
2020/12/14 00:38:33;;;;;;;10.23;2.67;;;7.90;99.90;;;;;;5026139;28;20033;-37
2020/12/14 00:40:59;;;;;;;10.70;4.05;;;7.90;99.90;;;;;;5028437;28;20033;-37
2020/12/14 00:43:24;;;;;;;6.57;3.45;;;7.90;99.90;;;;;;5028328;28;20493;-37
2020/12/14 00:45:50;;;;;;;16.35;3.35;;;8.00;99.90;;;;;;5009287;28;20042;-37
2020/12/14 00:48:15;;;;;;;9.20;3.88;;;8.00;99.90;;;;;;5019193;28;20049;-36
2020/12/14 00:50:41;;;;;;;8.88;3.60;;;8.00;99.90;;;;;;5028123;28;20537;-37
2020/12/14 00:53:06;;;;;;;7.28;3.42;;;8.00;99.90;;;;;;5030813;28;20083;-36
2020/12/14 00:55:32;;;;;;;7.68;3.53;;;8.00;99.90;;;;;;5022205;28;20037;-37
2020/12/14 00:57:58;;;;;;;6.55;3.80;;;8.00;99.90;;;;;;5028766;28;20418;-36
2020/12/14 01:00:23;;;;;;;8.02;3.20;;;8.00;99.90;;;;;;5029686;28;20033;-37
2020/12/14 01:02:49;;;;;;;8.65;3.42;;;8.00;99.90;;;;;;5024915;28;20300;-38
2020/12/14 01:05:14;;;;;;;8.45;3.65;;;8.00;99.90;;;;;;5026952;28;20080;-36
2020/12/14 01:07:40;;;;;;;13.57;3.05;;;8.00;99.90;;;;;;5026482;28;20033;-36
2020/12/14 01:10:05;;;;;;;13.18;3.58;;;8.00;99.90;;;;;;5015559;28;20037;-36
2020/12/14 01:12:31;;;;;;;5.45;2.53;;;8.00;99.90;;;;;;5030194;28;20036;-37
2020/12/14 01:14:56;;;;;;;9.57;3.70;;;8.00;99.90;;;;;;5025228;28;20033;-36
2020/12/14 01:17:22;;;;;;;7.00;3.53;;;8.00;99.90;;;;;;5028956;28;20265;-36
2020/12/14 01:19:47;;;;;;;9.73;4.20;;;8.00;99.90;;;;;;5011752;28;20050;-35
2020/12/14 01:22:13;;;;;;;8.07;4.13;;;8.00;99.90;;;;;;5028983;28;20080;-36
2020/12/14 01:24:38;;;;;;;5.88;2.85;;;8.00;99.90;;;;;;5026233;28;20051;-36
2020/12/14 01:27:04;;;;;;;3.00;1.50;;;8.00;99.90;;;;;;5029437;28;20025;-36
2020/12/14 01:29:30;;;;;;;13.50;4.50;;;8.00;99.90;;;;;;5020970;28;20046;-36
2020/12/14 01:31:55;;;;;;;6.60;3.33;;;8.00;99.90;;;;;;5030115;28;20525;-37
2020/12/14 01:34:21;;;;;;;10.70;4.18;;;8.00;99.90;;;;;;5029727;28;20596;-37
2020/12/14 01:36:48;;;;;;;7.30;2.67;;;8.00;99.90;;;;;;5014530;28;20037;-37
2020/12/14 01:39:15;;;;;;;8.88;4.78;;;8.00;99.90;;;;;;5022609;28;20091;-37
2020/12/14 01:41:41;;;;;;;9.82;4.55;;;8.00;99.90;;;;;;5014671;28;20037;-36
2020/12/14 01:44:07;;;;;;;7.72;3.92;;;8.00;99.90;;;;;;5031011;28;20112;-37
2020/12/14 01:46:32;;;;;;;10.55;4.32;;;8.00;99.90;;;;;;5028975;28;20060;-36
2020/12/14 01:49:02;;;;;;;8.55;4.00;;;8.10;99.90;;;;;;5029278;28;20029;-36
2020/12/14 01:51:32;;;;;;;10.65;4.72;;;8.10;99.90;;;;;;5029169;28;20030;-36
2020/12/14 01:54:02;;;;;;;8.13;5.03;;;8.10;99.90;;;;;;5031898;28;20482;-36
2020/12/14 01:56:27;;;;;;;7.95;4.78;;;8.10;99.90;;;;;;5031053;28;20045;-36
2020/12/14 01:58:53;;;;;;;8.85;5.05;;;8.10;99.90;;;;;;5030729;28;20029;-36
2020/12/14 02:01:18;;;;;;;6.85;3.60;;;8.10;99.90;;;;;;5030149;28;20041;-36
2020/12/14 02:03:44;;;;;;;10.15;4.55;;;8.10;99.90;;;;;;5028145;28;20514;-37
2020/12/14 02:06:10;;;;;;;10.27;5.60;;;8.20;99.90;;;;;;5014607;28;20030;-36
2020/12/14 02:08:35;;;;;;;11.23;5.70;;;8.20;99.90;;;;;;5028817;28;20088;-36
2020/12/14 02:11:01;;;;;;;10.82;6.03;;;8.20;99.90;;;;;;5030291;28;20029;-37
2020/12/14 02:13:29;;;;;;;10.70;6.30;;;8.20;99.90;;;;;;5029943;28;20030;-36
2020/12/14 02:15:55;;;;;;;10.50;6.47;;;8.20;99.90;;;;;;5009719;28;20471;-36
2020/12/14 02:18:21;;;;;;;14.18;6.30;;;8.30;99.90;;;;;;5025339;28;20041;-36
2020/12/14 02:20:46;;;;;;;11.25;4.57;;;8.30;99.90;;;;;;5029514;28;20077;-37
2020/12/14 02:23:12;;;;;;;17.38;6.20;;;8.30;99.90;;;;;;5030135;28;20037;-36
2020/12/14 02:25:37;;;;;;;12.38;5.70;;;8.30;99.90;;;;;;5030931;28;20485;-36
2020/12/14 02:28:03;;;;;;;17.67;7.78;;;8.30;99.90;;;;;;5026278;28;20060;-37
2020/12/14 02:30:28;;;;;;;11.77;6.90;;;8.40;99.90;;;;;;5031311;28;20882;-36
2020/12/14 02:32:54;;;;;;;15.82;6.65;;;8.40;99.90;;;;;;5012074;28;20041;-36
2020/12/14 02:35:19;;;;;;;11.20;6.75;;;8.40;99.90;;;;;;5027573;28;20104;-36
2020/12/14 02:37:45;;;;;;;10.95;5.32;;;8.40;99.90;;;;;;5030790;28;20052;-36
2020/12/14 02:40:11;;;;;;;13.00;5.93;;;8.40;99.90;;;;;;5030119;28;20041;-35
2020/12/14 02:42:36;;;;;;;10.88;6.72;;;8.40;99.90;;;;;;5013868;28;20073;-36
2020/12/14 02:45:02;;;;;;;16.67;9.50;;;8.40;99.90;;;;;;5028562;28;20032;-37
2020/12/14 02:47:28;;;;;;;15.75;8.60;;;8.50;99.90;;;;;;5028854;28;20029;-37
2020/12/14 02:49:54;;;;;;;13.35;8.52;;;8.50;99.90;;;;;;5022514;28;20068;-37
2020/12/14 02:52:19;;;;;;;18.10;7.15;;;8.50;99.90;;;;;;5032063;28;20029;-36
2020/12/14 02:54:45;;;;;;;16.05;8.65;;;8.50;99.90;;;;;;5022140;28;20493;-36
2020/12/14 02:57:12;;;;;;;11.48;6.28;;;8.60;99.90;;;;;;5030471;28;20071;-36
2020/12/14 02:59:38;;;;;;;17.98;8.40;;;8.60;99.90;;;;;;5011394;28;20036;-36
2020/12/14 03:02:04;;;;;;;13.43;8.70;;;8.60;99.90;;;;;;5027407;28;20143;-36
2020/12/14 03:04:30;;;;;;;17.33;8.70;;;8.60;99.90;;;;;;5030724;28;20030;-37
2020/12/14 03:06:56;;;;;;;18.52;8.40;;;8.60;99.90;;;;;;5030811;28;20053;-38
2020/12/14 03:09:22;;;;;;;16.98;7.50;;;8.60;99.90;;;;;;5020426;28;20457;-37
2020/12/14 03:11:48;;;;;;;17.88;10.85;;;8.60;99.90;;;;;;5030015;28;20034;-38
2020/12/14 03:14:14;;;;;;;20.58;10.85;;;8.60;99.90;;;;;;5029344;28;20029;-38
2020/12/14 03:16:41;;;;;;;21.17;9.80;;;8.60;99.90;;;;;;5026180;28;20057;-37
2020/12/14 03:19:07;;;;;;;14.80;8.43;;;8.70;99.90;;;;;;5029815;28;20056;-37
2020/12/14 03:21:33;;;;;;;16.33;11.18;;;8.60;99.90;;;;;;5029457;28;20033;-37
2020/12/14 03:23:58;;;;;;;9.52;6.22;;;8.70;99.90;;;;;;5030563;28;20068;-37
2020/12/14 03:26:24;;;;;;;26.70;11.40;;;8.70;99.90;;;;;;5029249;28;20101;-36
2020/12/14 03:28:49;;;;;;;22.30;9.82;;;8.70;99.90;;;;;;5030687;28;20429;-36
2020/12/14 03:31:15;;;;;;;18.10;8.82;;;8.70;99.90;;;;;;5029655;28;20045;-36
2020/12/14 03:33:41;;;;;;;17.80;8.93;;;8.70;99.90;;;;;;5033473;28;20032;-37
2020/12/14 03:36:06;;;;;;;18.55;10.75;;;8.70;99.90;;;;;;5033100;28;20033;-37
2020/12/14 03:38:32;;;;;;;15.18;9.43;;;8.70;99.90;;;;;;5034707;28;20037;-36
2020/12/14 03:41:03;;;;;;;17.67;8.02;;;8.70;99.90;;;;;;5033363;28;20036;-39
2020/12/14 03:43:29;;;;;;;17.90;11.05;;;8.70;99.90;;;;;;5034965;28;20512;-35
2020/12/14 03:45:54;;;;;;;16.00;9.55;;;8.80;99.90;;;;;;5032595;28;20073;-38
2020/12/14 03:48:20;;;;;;;29.30;11.85;;;8.80;99.90;;;;;;5034004;28;20466;-37
2020/12/14 03:50:46;;;;;;;21.42;11.15;;;8.80;99.90;;;;;;5032179;28;20044;-38
2020/12/14 03:53:12;;;;;;;10.85;5.90;;;8.80;99.90;;;;;;5034096;28;20107;-36
2020/12/14 03:55:38;;;;;;;19.48;10.27;;;8.90;99.90;;;;;;5033838;28;20033;-37
2020/12/14 03:58:03;;;;;;;22.08;9.90;;;8.80;99.90;;;;;;5033454;28;20488;-36
2020/12/14 04:00:29;;;;;;;15.63;8.52;;;8.80;99.90;;;;;;5032870;28;20037;-37
2020/12/14 04:02:55;;;;;;;15.95;8.27;;;8.90;99.90;;;;;;5033246;28;20134;-37
2020/12/14 04:05:20;;;;;;;20.88;8.23;;;8.90;99.90;;;;;;5032716;28;20030;-37
2020/12/14 04:07:46;;;;;;;19.95;9.20;;;8.90;99.90;;;;;;5015804;28;20367;-37
2020/12/14 04:10:11;;;;;;;15.18;8.88;;;8.90;99.90;;;;;;5032389;28;20037;-37
2020/12/14 04:12:37;;;;;;;15.90;6.13;;;8.90;99.90;;;;;;5033147;28;20029;-38
2020/12/14 04:15:02;;;;;;;16.50;7.53;;;8.90;99.90;;;;;;5023742;28;20160;-38
2020/12/14 04:17:28;;;;;;;13.07;7.20;;;8.90;99.90;;;;;;5022823;28;20029;-37
2020/12/14 04:19:53;;;;;;;14.93;8.63;;;9.00;99.90;;;;;;5030291;28;20060;-37
2020/12/14 04:22:19;;;;;;;14.98;6.57;;;9.00;99.90;;;;;;5031365;28;20105;-37
2020/12/14 04:24:44;;;;;;;15.10;7.13;;;9.00;99.90;;;;;;5030701;28;20057;-36
2020/12/14 04:27:10;;;;;;;10.55;6.20;;;9.00;99.90;;;;;;5033180;28;20425;-37
2020/12/14 04:29:36;;;;;;;12.45;6.57;;;9.00;99.90;;;;;;5032200;28;20046;-38
2020/12/14 04:32:01;;;;;;;16.13;5.90;;;9.00;99.90;;;;;;5032816;28;20033;-37
2020/12/14 04:34:27;;;;;;;8.68;3.58;;;9.00;99.90;;;;;;5012939;28;20052;-37
2020/12/14 04:36:52;;;;;;;14.38;5.47;;;9.00;99.90;;;;;;5033180;28;20451;-37
2020/12/14 04:39:18;;;;;;;14.82;7.55;;;9.00;99.90;;;;;;5031915;28;20046;-37
2020/12/14 04:41:44;;;;;;;19.08;5.00;;;9.00;99.90;;;;;;5034023;28;20037;-37
2020/12/14 04:44:11;;;;;;;17.17;7.38;;;9.00;99.90;;;;;;5013024;28;20029;-37
2020/12/14 04:46:37;;;;;;;16.30;7.88;;;9.00;99.90;;;;;;5032957;28;20040;-37
2020/12/14 04:49:05;;;;;;;15.65;7.65;;;9.10;99.90;;;;;;5031549;28;20083;-37
2020/12/14 04:51:38;;;;;;;18.92;7.53;;;9.10;99.90;;;;;;5031532;28;20026;-38
2020/12/14 04:54:07;;;;;;;16.73;8.27;;;9.00;99.90;;;;;;5026137;28;20057;-37
2020/12/14 04:56:41;;;;;;;15.27;7.88;;;9.10;99.90;;;;;;5032579;28;20466;-36
2020/12/14 04:59:07;;;;;;;14.77;8.88;;;9.10;99.90;;;;;;5032721;28;20390;-36
2020/12/14 05:01:33;;;;;;;14.73;7.35;;;9.00;99.90;;;;;;5031198;28;20105;-36
2020/12/14 05:03:58;;;;;;;15.45;6.60;;;9.10;99.90;;;;;;5028620;28;20041;-37
2020/12/14 05:06:24;;;;;;;17.15;8.70;;;9.10;99.90;;;;;;5032484;28;20037;-37
2020/12/14 05:08:50;;;;;;;15.93;7.93;;;9.10;99.90;;;;;;5030655;28;20025;-35
2020/12/14 05:11:32;;;;;;;13.20;7.68;;;9.10;99.90;;;;;;5024694;28;20555;-38
2020/12/14 05:14:15;;;;;;;19.95;7.47;;;9.10;99.90;;;;;;5013640;28;20038;-37
2020/12/14 05:16:40;;;;;;;9.40;5.97;;;9.10;99.90;;;;;;5032790;28;20474;-37
2020/12/14 05:19:28;;;;;;;14.68;7.95;;;9.10;99.90;;;;;;5027968;28;20040;-37
2020/12/14 05:21:56;;;;;;;13.95;6.35;;;9.10;99.90;;;;;;5031788;28;20470;-37
2020/12/14 05:24:32;;;;;;;14.32;6.03;;;9.10;99.90;;;;;;5014563;28;20037;-37
2020/12/14 05:27:00;;;;;;;11.90;7.47;;;9.10;99.90;;;;;;5032664;28;20025;-37
2020/12/14 05:29:26;;;;;;;11.68;7.10;;;9.10;99.90;;;;;;5031447;28;20493;-37
2020/12/14 05:32:21;;;;;;;10.88;5.90;;;9.20;99.90;;;;;;5026013;28;20026;-38
2020/12/14 05:34:47;;;;;;;14.07;7.22;;;9.20;99.90;;;;;;4988875;28;20046;-37
2020/12/14 05:37:14;;;;;;;16.15;9.18;;;9.20;99.90;;;;;;4977275;28;20385;-37
2020/12/14 05:39:42;;;;;;;19.40;8.20;;;9.20;99.90;;;;;;4989444;28;20038;-37
2020/12/14 05:42:14;;;;;;;15.85;7.88;;;9.20;99.90;;;;;;4989478;28;20046;-36
2020/12/14 05:44:41;;;;;;;16.15;9.18;;;9.20;99.90;;;;;;4986072;28;20038;-37
2020/12/14 05:47:27;;;;;;;15.10;9.57;;;9.20;99.90;;;;;;4989900;28;20057;-36
2020/12/14 05:49:56;;;;;;;13.48;6.82;;;9.30;99.90;;;;;;4987704;28;20089;-37
2020/12/14 05:52:25;;;;;;;11.90;5.95;;;9.30;99.90;;;;;;4972754;28;20100;-37
2020/12/14 05:54:57;;;;;;;11.23;6.47;;;9.30;99.90;;;;;;4987646;28;20031;-37
2020/12/14 05:57:29;;;;;;;19.92;7.93;;;9.40;99.90;;;;;;4978916;28;20040;-37
2020/12/14 06:00:19;;;;;;;15.55;9.13;;;9.40;99.90;;;;;;4990450;28;20479;-37
2020/12/14 06:02:45;;;;;;;12.25;6.95;;;9.40;99.90;;;;;;4973231;28;20652;-37
2020/12/14 06:05:11;;;;;;;14.25;5.57;;;9.40;99.90;;;;;;4989795;28;20133;-36
2020/12/14 06:07:38;;;;;;;14.95;5.45;;;9.40;99.90;;;;;;4974205;28;20046;-38
2020/12/14 06:10:09;;;;;;;14.98;6.95;;;9.30;99.90;;;;;;4974704;28;20050;-36
2020/12/14 06:12:37;;;;;;;14.07;8.23;;;9.40;99.90;;;;;;5028951;28;20021;-37
2020/12/14 06:15:14;;;;;;;11.48;6.30;;;9.40;99.90;;;;;;5016435;28;20030;-37
2020/12/14 06:17:41;;;;;;;16.30;7.97;;;9.40;99.90;;;;;;5015051;28;20024;-37
2020/12/14 06:20:20;;;;;;;20.60;10.13;;;9.50;99.90;;;;;;5018160;28;20405;-37
2020/12/14 06:22:57;;;;;;;14.75;7.45;;;9.50;99.90;;;;;;5027348;28;20037;-36
2020/12/14 06:25:24;;;;;;;13.50;7.43;;;9.50;99.90;;;;;;5026787;28;20036;-36
2020/12/14 06:27:50;;;;;;;16.15;7.97;;;9.50;99.90;;;;;;5013707;28;20021;-36
2020/12/14 06:30:42;;;;;;;15.30;8.23;;;9.60;99.90;;;;;;5030607;28;20418;-37
2020/12/14 06:33:12;;;;;;;11.05;7.25;;;9.60;99.90;;;;;;5026385;28;20042;-36
2020/12/14 06:35:53;;;;;;;17.73;8.68;;;9.60;99.90;;;;;;5026607;28;20103;-37
2020/12/14 06:38:38;;;;;;;12.68;7.55;;;9.60;99.90;;;;;;5044881;28;20036;-37
2020/12/14 06:41:24;;;;;;;16.65;7.75;;;9.60;99.90;;;;;;5023745;28;20045;-37
2020/12/14 06:44:04;;;;;;;10.02;6.03;;;9.70;99.90;;;;;;5001479;28;20426;-38
2020/12/14 06:46:32;;;;;;;11.75;5.45;;;9.70;99.90;;;;;;5022478;28;20094;-38
2020/12/14 06:48:58;;;;;;;6.97;3.50;;;9.80;99.90;;;;;;5031328;28;20029;-36
2020/12/14 06:51:24;;;;;;;9.80;6.07;;;9.80;99.90;;;;;;5025871;28;20363;-37
2020/12/14 06:53:54;;;;;;;9.27;4.45;;;9.80;99.90;;;;;;5017101;28;20036;-37
2020/12/14 06:56:43;;;;;;;15.70;4.65;;;9.80;99.90;;;;;;5024374;28;20032;-37
2020/12/14 06:59:28;;;;;;;15.07;5.45;;;9.80;99.90;;;;;;5003817;28;20117;-37
2020/12/14 07:02:05;;;;;;;13.27;6.80;;;9.80;99.90;;;;;;4997256;28;20951;-37
2020/12/14 07:04:36;;;;;;;12.48;7.10;;;9.80;99.90;;;;;;4973724;28;20090;-37
2020/12/14 07:07:04;;;;;;;9.93;5.53;;;9.80;99.90;;;;;;5006465;28;20183;-37
2020/12/14 07:09:38;;;;;;;11.18;6.90;;;9.80;99.90;;;;;;5010513;28;20061;-36
2020/12/14 07:12:10;;;;;;;9.20;4.70;;;9.90;99.90;;;;;;5014837;28;20046;-37
2020/12/14 07:14:35;;;;;;;10.80;6.05;;;9.80;99.90;;;;;;4992834;28;20030;-37
2020/12/14 07:17:17;;;;;;;7.53;4.57;;;9.90;99.90;;;;;;4993938;28;20092;-37
2020/12/14 07:19:46;;;;;;;13.32;6.07;;;9.80;99.90;;;;;;4993274;28;20434;-37
2020/12/14 07:22:14;;;;;;;8.57;5.32;;;9.80;99.90;;;;;;4977183;28;20526;-37
2020/12/14 07:24:40;;;;;;;10.88;5.70;;;9.80;99.90;;;;;;4980450;28;20313;-38
2020/12/14 07:27:11;;;;;;;10.52;5.15;;;9.80;99.90;;;;;;4994055;28;20125;-37
2020/12/14 07:29:36;;;;;;;16.95;6.45;;;9.80;99.90;;;;;;4992993;28;20050;-37
2020/12/14 07:32:05;;;;;;;6.13;2.92;;;9.80;99.90;;;;;;5001238;28;20060;-37
2020/12/14 07:34:32;;;;;;;12.55;5.90;;;9.80;99.90;;;;;;5009639;28;20248;-37
2020/12/14 07:36:58;;;;;;;23.17;7.88;;;9.90;99.90;;;;;;5028122;28;20033;-37
2020/12/14 07:39:24;;;;;;;6.72;3.97;;;9.80;99.90;;;;;;5043302;28;20033;-37
2020/12/14 07:41:49;;;;;;;10.48;5.45;;;9.80;99.90;;;;;;5039159;28;20083;-37
2020/12/14 07:44:15;;;;;;;11.50;5.93;;;9.80;99.90;;;;;;5011621;28;20037;-37
2020/12/14 07:46:41;;;;;;;9.73;5.20;;;9.80;99.90;;;;;;4993787;28;20026;-38
2020/12/14 07:49:09;;;;;;;8.65;4.68;;;9.80;99.90;;;;;;5030009;28;20033;-37
2020/12/14 07:51:37;;;;;;;10.32;5.70;;;9.90;99.90;;;;;;5049139;28;20123;-37
2020/12/14 07:54:07;;;;;;;12.77;5.50;;;9.90;99.90;;;;;;5050288;28;20417;-37
2020/12/14 07:56:40;;;;;;;8.88;5.57;;;9.90;99.90;;;;;;5051375;28;20378;-35
2020/12/14 07:59:20;;;;;;;10.82;4.97;;;9.90;99.90;;;;;;5035881;28;20034;-36
2020/12/14 08:01:47;;;;;;;9.95;4.50;;;9.80;99.90;;;;;;5031670;28;20505;-37
2020/12/14 08:04:19;;;;;;;9.52;4.38;;;9.90;99.90;;;;;;5050427;28;20063;-37
2020/12/14 08:06:48;;;;;;;7.38;4.63;;;9.90;99.90;;;;;;5032770;28;20037;-36
2020/12/14 08:09:16;;;;;;;10.27;3.90;;;9.80;99.90;;;;;;5051584;28;20449;-37
2020/12/14 08:11:44;;;;;;;6.88;4.32;;;9.80;99.90;;;;;;5050015;28;20382;-37
2020/12/14 08:14:10;;;;;;;9.15;5.68;;;9.80;99.90;;;;;;5039373;28;20082;-38
2020/12/14 08:16:40;;;;;;;6.25;3.72;;;9.90;99.90;;;;;;5027122;28;20038;-37
2020/12/14 08:19:12;;;;;;;8.13;5.07;;;9.80;99.90;;;;;;5014406;28;20030;-35
2020/12/14 08:21:40;;;;;;;9.10;4.75;;;9.90;99.90;;;;;;5035433;28;20040;-37
2020/12/14 08:24:09;;;;;;;8.55;4.68;;;9.80;99.90;;;;;;5036345;28;20140;-36
2020/12/14 08:26:36;;;;;;;10.82;4.43;;;9.90;99.90;;;;;;5054215;28;20043;-37
2020/12/14 08:29:02;;;;;;;7.10;3.58;;;9.90;99.90;;;;;;5040935;28;20175;-37
2020/12/14 08:31:28;;;;;;;8.50;4.97;;;9.90;99.90;;;;;;5048205;28;20298;-36
2020/12/14 08:33:55;;;;;;;7.68;2.97;;;9.80;99.90;;;;;;5049409;28;20045;-37
2020/12/14 08:36:22;;;;;;;8.10;4.38;;;9.90;99.90;;;;;;5048595;28;20080;-37
2020/12/14 08:38:49;;;;;;;8.80;3.83;;;9.90;99.90;;;;;;5053012;28;20028;-37
2020/12/14 08:41:21;;;;;;;14.15;5.57;;;9.90;99.90;;;;;;5051491;28;20049;-37
2020/12/14 08:43:47;;;;;;;7.57;3.88;;;9.90;99.90;;;;;;5039920;28;20033;-37
2020/12/14 08:46:15;;;;;;;10.48;4.60;;;9.90;99.90;;;;;;5052950;28;20040;-37
2020/12/14 08:48:44;;;;;;;13.90;3.90;;;9.90;99.90;;;;;;5035984;28;20336;-37
2020/12/14 08:51:26;;;;;;;12.32;4.68;;;9.90;99.90;;;;;;5023055;28;20038;-38
2020/12/14 08:53:53;;;;;;;10.63;4.25;;;9.90;99.90;;;;;;5050306;28;20021;-37
2020/12/14 08:56:21;;;;;;;11.90;4.18;;;9.90;99.90;;;;;;5053148;28;20029;-37
2020/12/14 08:58:50;;;;;;;5.05;2.17;;;10.00;99.90;;;;;;5052335;28;20424;-37
2020/12/14 09:01:17;;;;;;;9.20;3.42;;;10.00;99.90;;;;;;5042434;28;20059;-38
2020/12/14 09:03:50;;;;;;;10.32;4.13;;;10.10;99.90;;;;;;5038757;28;20025;-37
2020/12/14 09:06:36;;;;;;;9.30;4.03;;;10.20;99.90;;;;;;5049492;28;20651;-37
2020/12/14 09:09:12;;;;;;;10.52;3.63;;;10.20;99.90;;;;;;5027681;28;20486;-36
2020/12/14 09:11:58;;;;;;;9.48;3.25;;;10.20;99.90;;;;;;5051258;28;20033;-36
2020/12/14 09:14:28;;;;;;;6.45;3.30;;;10.30;99.90;;;;;;5047166;28;20021;-37
2020/12/14 09:16:59;;;;;;;14.35;3.83;;;10.30;99.90;;;;;;5051990;28;20033;-37
2020/12/14 09:19:31;;;;;;;10.30;3.65;;;10.30;99.90;;;;;;5051468;28;20036;-37
2020/12/14 09:21:57;;;;;;;8.65;4.28;;;10.20;99.90;;;;;;5048808;28;20037;-37
2020/12/14 09:24:26;;;;;;;8.45;3.05;;;10.30;99.90;;;;;;5040397;28;20032;-37
2020/12/14 09:26:53;;;;;;;7.70;3.40;;;10.30;99.90;;;;;;5040488;28;20091;-36
2020/12/14 09:29:19;;;;;;;11.30;2.95;;;10.40;99.90;;;;;;5038757;28;20386;-44
2020/12/14 09:31:52;;;;;;;7.25;2.60;;;10.40;99.90;;;;;;5039238;28;20044;-37
2020/12/14 09:34:18;;;;;;;6.80;2.42;;;10.40;99.90;;;;;;5048680;28;20037;-37
2020/12/14 09:36:45;;;;;;;4.40;1.63;;;10.50;99.90;;;;;;5049163;28;20132;-37
2020/12/14 09:39:10;;;;;;;6.50;2.63;;;10.50;99.90;;;;;;5049123;28;20090;-36
2020/12/14 09:41:36;;;;;;;8.63;2.63;;;10.40;99.90;;;;;;5041700;28;20033;-36
2020/12/14 09:44:02;;;;;;;4.50;2.00;;;10.40;99.90;;;;;;5049570;28;20033;-37
2020/12/14 09:46:28;;;;;;;5.88;1.63;;;10.50;99.90;;;;;;5018641;28;20527;-37
2020/12/14 09:48:58;;;;;;;7.28;2.42;;;10.50;99.90;;;;;;5019171;28;20036;-37
2020/12/14 09:51:24;;;;;;;11.80;3.03;;;10.60;99.90;;;;;;5047648;28;20056;-37
2020/12/14 09:53:50;;;;;;;13.95;3.67;;;10.60;99.90;;;;;;5048738;28;20105;-37
2020/12/14 09:56:17;;;;;;;8.82;2.70;;;10.60;99.90;;;;;;5037651;28;20107;-36
2020/12/14 09:58:42;;;;;;;7.00;2.95;;;10.70;99.90;;;;;;5044528;28;20032;-37
2020/12/14 10:01:08;;;;;;;6.25;2.72;;;10.80;99.90;;;;;;5030733;28;20037;-38
2020/12/14 10:03:35;;;;;;;6.22;2.10;;;10.90;99.90;;;;;;5050121;28;20103;-36
2020/12/14 10:06:00;;;;;;;8.85;2.90;;;11.00;99.90;;;;;;5048949;28;20044;-38
2020/12/14 10:08:26;;;;;;;5.70;2.30;;;11.00;99.90;;;;;;5047871;28;20469;-37
2020/12/14 10:10:55;;;;;;;5.32;1.98;;;11.00;99.90;;;;;;5031724;28;20485;-37
2020/12/14 10:13:30;;;;;;;7.32;2.47;;;11.00;99.90;;;;;;5032583;28;20024;-38
2020/12/14 10:15:55;;;;;;;9.52;2.92;;;11.00;99.90;;;;;;5050722;28;20107;-37
2020/12/14 10:18:21;;;;;;;5.82;1.95;;;11.00;99.90;;;;;;5050681;28;20033;-37
2020/12/14 10:20:47;;;;;;;5.57;2.88;;;11.10;99.90;;;;;;5048128;28;20032;-37
2020/12/14 10:23:13;;;;;;;11.90;3.25;;;11.10;99.90;;;;;;5051490;28;20060;-37
2020/12/14 10:25:39;;;;;;;8.40;2.90;;;11.10;99.90;;;;;;5034223;28;20397;-38
2020/12/14 10:28:05;;;;;;;5.38;2.35;;;11.20;99.90;;;;;;5050223;28;20025;-37
2020/12/14 10:30:32;;;;;;;14.75;2.65;;;11.20;99.90;;;;;;5048816;28;20052;-37
2020/12/14 10:32:58;;;;;;;9.43;2.65;;;11.30;99.90;;;;;;5035780;28;20025;-37
2020/12/14 10:35:24;;;;;;;9.18;2.50;;;11.30;99.90;;;;;;5052289;28;20021;-37
2020/12/14 10:37:49;;;;;;;6.03;2.25;;;11.30;99.90;;;;;;5050551;28;20025;-36
2020/12/14 10:40:15;;;;;;;5.15;1.95;;;11.30;99.90;;;;;;5050853;28;20036;-37
2020/12/14 10:42:42;;;;;;;7.90;2.22;;;11.30;99.90;;;;;;5044753;28;20036;-36
2020/12/14 10:45:08;;;;;;;7.32;2.70;;;11.30;99.90;;;;;;5051870;28;20116;-37
2020/12/14 10:47:34;;;;;;;7.68;2.63;;;11.40;99.90;;;;;;5032646;28;20048;-37
2020/12/14 10:50:00;;;;;;;7.88;2.40;;;11.40;99.90;;;;;;5047085;28;20037;-38
2020/12/14 10:52:25;;;;;;;9.38;2.30;;;11.40;99.90;;;;;;5051049;28;20072;-37
2020/12/14 10:54:51;;;;;;;6.78;2.25;;;11.40;99.90;;;;;;5033686;28;20029;-37
2020/12/14 10:57:18;;;;;;;6.55;2.00;;;11.40;99.90;;;;;;5050999;28;20025;-37
2020/12/14 10:59:44;;;;;;;5.40;1.95;;;11.60;99.90;;;;;;5041000;28;20033;-36
2020/12/14 11:02:10;;;;;;;7.05;2.75;;;11.60;99.90;;;;;;5017392;28;20067;-37
2020/12/14 11:04:37;;;;;;;10.77;3.10;;;11.60;99.90;;;;;;5050411;28;20367;-37
2020/12/14 11:07:02;;;;;;;8.27;2.45;;;11.60;99.90;;;;;;5049654;28;20488;-37
2020/12/14 11:09:28;;;;;;;6.43;1.95;;;11.60;99.90;;;;;;5032990;28;20040;-37
2020/12/14 11:11:54;;;;;;;11.48;3.15;;;11.50;99.90;;;;;;5051554;28;20033;-37
2020/12/14 11:14:19;;;;;;;9.15;2.55;;;11.60;99.90;;;;;;5048672;28;20473;-37
2020/12/14 11:16:46;;;;;;;4.40;1.33;;;11.60;99.90;;;;;;5046747;28;20037;-36
2020/12/14 11:19:11;;;;;;;9.60;2.85;;;11.60;99.90;;;;;;5046020;28;20048;-36
2020/12/14 11:21:37;;;;;;;8.52;3.03;;;11.60;99.90;;;;;;5050652;28;20147;-36
2020/12/14 11:24:04;;;;;;;5.28;1.83;;;11.70;99.90;;;;;;5033883;28;20083;-36
2020/12/14 11:26:30;;;;;;;11.23;2.45;;;11.70;99.90;;;;;;5044149;28;20044;-37
2020/12/14 11:28:56;;;;;;;12.45;2.78;;;11.70;99.90;;;;;;5032468;28;20050;-36
2020/12/14 11:31:21;;;;;;;6.93;2.50;;;11.80;99.90;;;;;;5016417;28;20103;-37
2020/12/14 11:33:47;;;;;;;10.18;3.30;;;11.80;99.90;;;;;;5036029;28;20164;-37
2020/12/14 11:36:13;;;;;;;12.00;2.45;;;11.80;99.90;;;;;;5034229;28;20034;-37
2020/12/14 11:38:38;;;;;;;9.90;2.53;;;11.90;99.90;;;;;;5036077;28;20059;-37
2020/12/14 11:41:04;;;;;;;9.38;2.42;;;11.80;99.90;;;;;;5013810;28;20046;-37
2020/12/14 11:43:30;;;;;;;14.20;3.05;;;11.80;99.90;;;;;;5012045;28;20030;-37
2020/12/14 11:45:55;;;;;;;11.30;3.08;;;11.90;99.90;;;;;;5020672;28;20040;-38
2020/12/14 11:48:21;;;;;;;11.82;2.83;;;11.90;99.90;;;;;;5011784;28;20038;-37
2020/12/14 11:50:47;;;;;;;8.23;2.95;;;11.90;99.90;;;;;;5026714;28;20033;-37
2020/12/14 11:53:13;;;;;;;7.43;2.67;;;12.00;99.90;;;;;;5026627;28;20113;-37
2020/12/14 11:55:39;;;;;;;12.45;2.65;;;12.00;99.90;;;;;;5015536;28;20493;-38
2020/12/14 11:58:05;;;;;;;8.65;2.83;;;12.00;99.90;;;;;;5020045;28;20034;-35
2020/12/14 12:00:31;;;;;;;7.45;1.63;;;12.00;99.90;;;;;;5027879;28;20516;-38
2020/12/14 12:02:56;;;;;;;8.80;3.40;;;12.00;99.90;;;;;;5048248;28;20029;-37
2020/12/14 12:05:22;;;;;;;11.18;2.88;;;12.00;99.90;;;;;;5035564;28;20048;-38
2020/12/14 12:07:48;;;;;;;3.38;1.48;;;11.90;99.90;;;;;;5035171;28;20029;-37
2020/12/14 12:10:14;;;;;;;10.90;2.35;;;11.90;99.90;;;;;;5036261;28;20039;-39
2020/12/14 12:12:40;;;;;;;13.38;3.13;;;11.80;99.90;;;;;;5054487;28;20060;-38
2020/12/14 12:15:05;;;;;;;9.48;2.42;;;11.90;99.90;;;;;;5035177;28;20567;-37
2020/12/14 12:17:31;;;;;;;14.60;3.00;;;12.00;99.90;;;;;;5051954;28;20036;-37
2020/12/14 12:19:57;;;;;;;7.65;1.95;;;12.00;99.90;;;;;;5052379;28;20098;-37
2020/12/14 12:22:22;;;;;;;10.02;2.38;;;11.90;99.90;;;;;;5052644;28;20033;-37
2020/12/14 12:24:48;;;;;;;5.22;1.60;;;11.90;99.90;;;;;;5035337;28;20083;-37
2020/12/14 12:27:13;;;;;;;8.95;1.77;;;11.90;99.90;;;;;;5053053;28;20082;-37
2020/12/14 12:29:39;;;;;;;5.88;2.42;;;12.00;99.90;;;;;;5051907;28;20327;-37
2020/12/14 12:32:05;;;;;;;11.35;2.25;;;11.90;99.90;;;;;;5044049;28;20060;-37
2020/12/14 12:34:32;;;;;;;9.88;2.38;;;12.00;99.90;;;;;;5053969;28;20040;-37
2020/12/14 12:36:59;;;;;;;9.07;3.13;;;12.00;99.90;;;;;;5052955;28;20036;-37
2020/12/14 12:39:26;;;;;;;8.77;1.95;;;11.90;99.90;;;;;;5053763;28;20070;-38
2020/12/14 12:41:53;;;;;;;6.95;2.40;;;11.80;99.90;;;;;;5043789;28;20445;-37
2020/12/14 12:44:20;;;;;;;9.13;2.40;;;11.80;99.90;;;;;;5052856;28;20082;-37
2020/12/14 12:46:45;;;;;;;10.23;2.95;;;11.70;99.90;;;;;;5050091;28;20475;-37
2020/12/14 12:49:11;;;;;;;13.73;2.85;;;11.70;99.90;;;;;;5048876;28;20128;-37
2020/12/14 12:51:37;;;;;;;11.07;3.03;;;11.60;99.90;;;;;;5049050;28;20047;-38